Nearby METAR Reports

EGHH - Bournemouth Airp, United Kingdom
Distance from station: ENE 14mi, 22km
Updated: Fri, 25-May-2018 9:20pm BST
Partly Cloudy
Partly Cloudy
 Wind from NE
Wind: NE 2 mph , 4 km/h
Temperature: 15°C
Dew Point: 13°C
Humidity: 88%
Barometer: 1018 hPa
Clouds: Partly Cloudy
Visibility: 4 miles , 6 km
Cloud details: Partly Cloudy 701 m
2018/05/25 20:20 EGHH 252020Z 04002KT 6000 SCT023 15/13 Q1018
EGDY - Yeovilton (navy), United Kingdom
Distance from station: NW 31mi, 50km
Updated: Fri, 25-May-2018 8:50pm BST
Clear
Clear
 Wind from N
Wind: N 2 mph , 4 km/h
Temperature: 14°C
Dew Point: 12°C
Humidity: 88%
Barometer: 1018 hPa
Clouds: Clear
Visibility: 6 miles , 10 km
2018/05/25 19:50 EGDY 251950Z AUTO 36002KT 9999 NCD 14/12 Q1018
 
EGDM - Boscombe Down, United Kingdom
Distance from station: NNE 37mi, 59km
Updated: Fri, 25-May-2018 8:50pm BST
Few Clouds
Few Clouds
 Wind from N
Wind: N 5 mph , 7 km/h
Temperature: 15°C
Dew Point: 13°C
Humidity: 88%
Barometer: 1018 hPa
Clouds: Few Clouds
Visibility: 6 miles , 10 km
Cloud details: Few Clouds 762 m
2018/05/25 19:50 EGDM 251950Z AUTO 01004KT 9999 FEW025/// 15/13 Q1018
EGHI - Southampton Wx C, United Kingdom
Distance from station: ENE 38mi, 61km
Updated: Fri, 25-May-2018 9:20pm BST
Partly Cloudy
Partly Cloudy
 Wind from NE
Wind: NE 3 mph , 6 km/h
Temperature: 16°C
Dew Point: 12°C
Humidity: 77%
Barometer: 1018 hPa
Clouds: Partly Cloudy
Visibility: 6 miles , 10 km
Cloud details: Partly Cloudy 762 m
2018/05/25 20:20 EGHI 252020Z 05003KT 9999 SCT025 16/12 Q1018
 
EGVP - Middle Wallop, United Kingdom
Distance from station: NE 39mi, 63km
Updated: Fri, 25-May-2018 8:50pm BST
Few Clouds
Few Clouds
 Wind from ENE
Wind: ENE 6 mph , 9 km/h
Temperature: 16°C
Dew Point: 13°C
Humidity: 83%
Barometer: 1018 hPa
Clouds: Few Clouds
Visibility: 6 miles , 10 km
Cloud details: Few Clouds 823 m
2018/05/25 19:50 EGVP 251950Z AUTO 06005KT 9999 // FEW027/// 16/13 Q1018
EGGD - Bristol/Lulsgate, United Kingdom
Distance from station: NNW 54mi, 87km
Updated: Fri, 25-May-2018 9:20pm BST
Mostly Cloudy
Mostly Cloudy
 Wind from NNE
Wind: NNE 5 mph , 7 km/h
Temperature: 12°C
Dew Point: 12°C
Humidity: 100%
Barometer: 1019 hPa
Clouds: Mostly Cloudy
Visibility: 4 miles , 6 km
Cloud details: Mostly Cloudy 549 m
2018/05/25 20:20 EGGD 252020Z AUTO 03004KT 010V080 6000 BKN018 12/12 Q1019

Metar display script from Saratoga-Weather.org